Time;durP1;ratioP1;P1;durP2;ratioP2;P2;SDS_P1;SDS_P2;PMS_P1;PMS_P2;Temp;Humidity;BMP_temperature;BMP_pressure;BME280_temperature;BME280_humidity;BME280_pressure;Samples;Min_cycle;Max_cycle;Signal;HPM_P1;HPM_P2
2022/10/18 05:47:35;;;;;;;58.00;46.30;;;;;;;6.93;100.00;99994.78;99087;1338;601195;-73
2022/10/18 05:50:03;;;;;;;60.10;48.40;;;;;;;7.02;100.00;99994.65;101200;1314;59313;-72
2022/10/18 05:52:29;;;;;;;58.90;50.10;;;;;;;7.13;100.00;99990.89;101237;1312;59425;-72
2022/10/18 05:54:56;;;;;;;59.80;49.70;;;;;;;7.23;100.00;99987.67;101229;1300;59401;-72
2022/10/18 05:57:22;;;;;;;51.70;45.00;;;;;;;7.35;100.00;99990.98;101330;1310;59645;-72
2022/10/18 05:59:49;;;;;;;52.90;46.20;;;;;;;7.43;100.00;99987.14;101442;1295;59220;-74
2022/10/18 06:02:15;;;;;;;52.00;46.00;;;;;;;7.53;100.00;99983.23;101677;1291;157253;-73
2022/10/18 06:04:42;;;;;;;52.10;44.80;;;;;;;7.65;100.00;99984.33;101663;1308;59397;-72
2022/10/18 06:07:10;;;;;;;57.20;46.50;;;;;;;7.78;100.00;99983.13;101690;1301;59362;-73
2022/10/18 06:09:37;;;;;;;61.40;47.40;;;;;;;7.90;100.00;99976.08;101720;1309;59190;-73
2022/10/18 06:12:04;;;;;;;60.50;48.00;;;;;;;8.02;100.00;99979.30;101586;1301;71540;-73
2022/10/18 06:14:31;;;;;;;49.20;42.40;;;;;;;8.14;100.00;99978.29;101576;1307;59773;-74
2022/10/18 06:27:19;;;;;;;70.10;49.70;;;;;;;8.80;100.00;99984.04;99257;1327;601237;-72
2022/10/18 06:29:46;;;;;;;53.70;42.90;;;;;;;8.89;100.00;99980.80;100893;1290;59437;-72
2022/10/18 06:32:12;;;;;;;52.50;44.70;;;;;;;9.02;100.00;99981.13;101391;1301;59379;-73
2022/10/18 06:34:39;;;;;;;56.10;43.30;;;;;;;9.14;100.00;99978.98;101429;1304;59370;-72
2022/10/18 06:37:06;;;;;;;57.20;46.60;;;;;;;9.25;100.00;99979.54;101429;1310;59717;-72
2022/10/18 06:39:33;;;;;;;74.00;58.10;;;;;;;9.35;100.00;99979.09;101413;1310;65602;-72
2022/10/18 06:42:00;;;;;;;81.50;62.10;;;;;;;9.47;100.00;99982.25;101517;1302;153145;-72
2022/10/18 06:44:27;;;;;;;76.50;58.50;;;;;;;9.57;100.00;99981.27;102418;1294;59374;-73
2022/10/18 06:46:54;;;;;;;60.70;49.90;;;;;;;9.68;100.00;99980.91;102434;1288;59380;-72
2022/10/18 06:49:21;;;;;;;54.70;45.10;;;;;;;9.80;100.00;99981.76;102412;1294;61397;-73
2022/10/18 06:51:47;;;;;;;61.90;47.30;;;;;;;9.93;100.00;99977.78;102423;1288;65778;-72
2022/10/18 06:54:14;;;;;;;60.00;46.10;;;;;;;10.04;100.00;99979.17;102407;1282;59699;-73
2022/10/18 06:56:41;;;;;;;57.30;46.40;;;;;;;10.16;100.00;99983.21;102371;1283;59722;-72
2022/10/18 06:59:07;;;;;;;57.10;43.20;;;;;;;10.28;100.00;99978.89;102430;1289;65378;-71
2022/10/18 07:01:34;;;;;;;46.30;36.80;;;;;;;10.41;100.00;99978.27;102426;1296;59765;-72
2022/10/18 07:04:01;;;;;;;42.00;34.20;;;;;;;10.53;100.00;99978.02;102438;1291;60140;-72
2022/10/18 07:06:27;;;;;;;40.50;33.50;;;;;;;10.64;100.00;99978.69;102487;1288;59804;-71
2022/10/18 07:08:54;;;;;;;34.00;28.40;;;;;;;10.77;100.00;99977.52;102447;1283;59771;-71
2022/10/18 07:11:24;;;;;;;34.40;27.20;;;;;;;10.88;100.00;99975.66;102545;1298;64798;-72
2022/10/18 07:13:53;;;;;;;28.50;24.60;;;;;;;11.00;100.00;99972.02;102553;1281;61638;-72
2022/10/18 07:16:20;;;;;;;30.40;24.50;;;;;;;11.12;100.00;99968.32;102450;1296;63876;-72
2022/10/18 07:18:49;;;;;;;39.50;26.00;;;;;;;11.26;100.00;99964.96;102263;1296;59824;-72
2022/10/18 07:21:19;;;;;;;30.90;26.50;;;;;;;11.39;100.00;99966.71;102473;1297;59779;-73
2022/10/18 07:23:46;;;;;;;31.70;25.80;;;;;;;11.51;100.00;99965.19;102266;1294;64264;-72
2022/10/18 07:26:20;;;;;;;28.90;23.40;;;;;;;11.60;100.00;99969.83;102433;1282;60604;-73
2022/10/18 07:28:50;;;;;;;29.50;24.60;;;;;;;11.67;100.00;99970.50;102411;1298;62985;-71
2022/10/18 07:31:17;;;;;;;;;;;;;;;11.76;100.00;99968.41;102728;1295;59701;-72
2022/10/18 07:33:43;;;;;;;28.50;22.10;;;;;;;11.85;100.00;99968.60;102402;1290;59726;-71
2022/10/18 07:36:11;;;;;;;28.00;22.50;;;;;;;11.94;100.00;99972.38;102357;1281;59592;-72
2022/10/18 07:38:38;;;;;;;32.00;23.00;;;;;;;12.05;100.00;99970.36;102491;1291;60728;-72
2022/10/18 07:41:07;;;;;;;28.00;22.50;;;;;;;12.15;100.00;99971.55;102547;1294;63851;-73
2022/10/18 07:43:34;;;;;;;26.60;20.60;;;;;;;12.23;100.00;99969.50;102362;1281;59756;-72
2022/10/18 07:46:03;;;;;;;25.80;21.20;;;;;;;12.31;100.00;99967.58;102391;1278;59751;-73
2022/10/18 07:48:30;;;;;;;27.90;22.50;;;;;;;12.42;100.00;99962.88;102376;1297;65433;-73
2022/10/18 07:50:58;;;;;;;26.30;21.10;;;;;;;12.53;100.00;99961.51;102415;1298;61512;-72
2022/10/18 07:53:26;;;;;;;30.60;20.50;;;;;;;12.64;100.00;99956.21;102534;1291;63908;-72
2022/10/18 07:55:56;;;;;;;22.60;19.40;;;;;;;12.74;100.00;99955.95;102401;1296;59685;-73
2022/10/18 07:58:23;;;;;;;28.50;19.40;;;;;;;12.84;100.00;99956.07;102390;1298;60093;-72
2022/10/18 08:00:49;;;;;;;25.70;21.00;;;;;;;12.92;100.00;99958.94;102128;1284;65863;-73
2022/10/18 08:03:16;;;;;;;23.70;18.90;;;;;;;13.02;100.00;99961.18;102485;1291;59587;-72
2022/10/18 08:05:42;;;;;;;27.80;18.30;;;;;;;13.11;100.00;99961.14;102394;1282;59685;-72
2022/10/18 08:08:09;;;;;;;19.60;16.00;;;;;;;13.21;100.00;99953.94;102348;1295;59773;-72
2022/10/18 08:10:35;;;;;;;27.20;17.40;;;;;;;13.32;100.00;99951.70;102452;1290;59652;-73
2022/10/18 08:13:02;;;;;;;22.20;16.90;;;;;;;13.42;100.00;99949.29;102534;1292;59705;-72
2022/10/18 08:15:28;;;;;;;25.00;16.90;;;;;;;13.50;100.00;99948.95;102377;1282;59668;-72
2022/10/18 08:17:55;;;;;;;23.40;18.00;;;;;;;13.58;100.00;99946.44;102457;1292;65585;-74
2022/10/18 08:20:21;;;;;;;21.40;15.70;;;;;;;13.68;100.00;99947.59;102358;1291;59702;-72
2022/10/18 08:22:49;;;;;;;22.00;16.20;;;;;;;13.78;100.00;99942.16;102369;1277;59670;-72
2022/10/18 08:25:16;;;;;;;20.40;16.50;;;;;;;13.87;100.00;99936.42;102739;1297;65892;-72
2022/10/18 08:27:43;;;;;;;20.20;14.40;;;;;;;13.95;100.00;99935.66;102193;1286;60527;-73
2022/10/18 08:30:10;;;;;;;18.50;13.80;;;;;;;14.04;100.00;99934.21;102365;1298;65585;-72
2022/10/18 08:32:36;;;;;;;16.40;12.60;;;;;;;14.12;100.00;99927.41;102108;1298;59987;-72
2022/10/18 08:35:03;;;;;;;20.50;13.30;;;;;;;14.20;100.00;99923.09;102465;1281;60048;-72
2022/10/18 08:37:29;;;;;;;18.80;15.00;;;;;;;14.33;100.00;99917.94;102539;1291;66095;-72
2022/10/18 08:39:56;;;;;;;14.40;12.10;;;;;;;14.44;100.00;99916.30;102500;1290;61453;-72
2022/10/18 08:42:28;;;;;;;16.60;12.80;;;;;;;14.52;100.00;99915.76;102576;1291;59699;-71
2022/10/18 08:44:56;;;;;;;17.10;11.20;;;;;;;14.61;100.00;99914.99;102610;1287;59726;-71
2022/10/18 08:47:36;;;;;;;14.60;10.50;;;;;;;14.68;100.00;99911.98;102586;1282;59782;-72
2022/10/18 08:50:13;;;;;;;14.40;10.70;;;;;;;14.77;100.00;99911.01;102567;1295;65979;-72
2022/10/18 08:53:23;;;;;;;12.60;10.40;;;;;;;14.86;100.00;99902.73;102572;1295;61594;-72
2022/10/18 08:56:02;;;;;;;14.20;11.20;;;;;;;14.98;100.00;99898.27;102375;1282;64357;-72
2022/10/18 08:58:32;;;;;;;15.60;11.30;;;;;;;15.10;100.00;99895.84;102391;1292;60010;-73
2022/10/18 09:01:23;;;;;;;13.80;10.50;;;;;;;15.19;100.00;99895.36;102432;1297;60786;-72
2022/10/18 09:04:23;;;;;;;15.70;11.20;;;;;;;15.27;100.00;99896.00;102379;1298;65872;-73
2022/10/18 09:06:49;;;;;;;14.10;10.90;;;;;;;15.39;100.00;99891.08;102375;1291;61907;-73
2022/10/18 09:09:29;;;;;;;19.00;10.90;;;;;;;15.48;100.00;99886.45;102501;1287;59746;-72
2022/10/18 09:12:08;;;;;;;15.70;11.00;;;;;;;15.60;100.00;99882.38;102460;1295;59591;-72
2022/10/18 09:14:55;;;;;;;16.90;11.70;;;;;;;15.72;100.00;99882.74;102542;1297;59592;-73
2022/10/18 09:17:34;;;;;;;15.10;11.00;;;;;;;15.84;100.00;99878.84;102264;1298;65051;-72
2022/10/18 09:20:08;;;;;;;14.70;11.60;;;;;;;15.92;100.00;99873.38;102528;1289;61560;-72
2022/10/18 09:22:55;;;;;;;15.60;11.60;;;;;;;16.00;100.00;99872.58;102560;1286;65597;-72
2022/10/18 09:25:28;;;;;;;15.80;11.10;;;;;;;16.11;100.00;99870.56;102643;1297;59730;-72
2022/10/18 09:28:03;;;;;;;13.20;10.20;;;;;;;16.20;100.00;99874.84;102485;1291;59756;-73
2022/10/18 09:30:44;;;;;;;15.50;11.30;;;;;;;16.24;100.00;99873.84;102080;1298;65983;-75
2022/10/18 09:33:27;;;;;;;14.60;10.70;;;;;;;16.29;100.00;99868.41;102428;1292;59608;-73
2022/10/18 09:36:06;;;;;;;12.20;8.60;;;;;;;16.37;100.00;99867.26;102402;1298;65554;-72
2022/10/18 09:38:44;;;;;;;14.20;9.10;;;;;;;16.47;100.00;99867.20;102388;1281;59670;-73
2022/10/18 09:41:17;;;;;;;10.70;7.80;;;;;;;16.59;100.00;99869.31;102427;1298;59772;-72
2022/10/18 09:43:53;;;;;;;11.90;8.70;;;;;;;16.74;100.00;99866.73;102404;1299;66020;-72
2022/10/18 09:46:24;;;;;;;10.30;8.10;;;;;;;16.92;100.00;99860.31;102456;1298;70794;-71
2022/10/18 09:48:57;;;;;;;8.90;7.40;;;;;;;17.05;100.00;99856.20;102350;1289;65553;-71
2022/10/18 09:51:44;;;;;;;12.30;7.20;;;;;;;17.17;100.00;99852.18;102395;1297;59690;-71
2022/10/18 09:54:19;;;;;;;10.20;6.70;;;;;;;17.25;100.00;99849.36;102566;1299;59698;-72
2022/10/18 09:56:51;;;;;;;7.00;6.40;;;;;;;17.35;100.00;99845.55;102538;1297;66022;-71
2022/10/18 09:59:34;;;;;;;9.80;6.10;;;;;;;17.45;100.00;99839.54;102464;1294;60472;-72
2022/10/18 10:02:00;;;;;;;8.00;6.60;;;;;;;17.58;100.00;99840.80;102471;1295;65744;-72
2022/10/18 10:04:27;;;;;;;7.60;6.50;;;;;;;17.69;100.00;99839.69;102472;1296;59674;-72
2022/10/18 10:06:55;;;;;;;9.30;6.10;;;;;;;17.83;100.00;99840.58;102368;1288;59706;-72
2022/10/18 10:09:46;;;;;;;8.50;6.30;;;;;;;17.93;100.00;99834.82;102394;1289;65623;-72
2022/10/18 10:12:42;;;;;;;8.60;6.20;;;;;;;18.02;100.00;99833.39;102432;1289;61481;-72
2022/10/18 10:15:25;;;;;;;7.50;6.20;;;;;;;18.09;100.00;99831.17;101885;1306;65000;-72
2022/10/18 10:18:00;;;;;;;8.50;5.60;;;;;;;18.16;100.00;99826.03;102075;1307;60118;-72
2022/10/18 10:20:36;;;;;;;6.10;5.00;;;;;;;18.24;100.00;99819.95;102082;1289;59771;-72
2022/10/18 10:23:18;;;;;;;10.20;5.50;;;;;;;18.33;100.00;99816.01;101875;1290;65972;-71
2022/10/18 10:25:58;;;;;;;5.80;5.20;;;;;;;18.42;100.00;99812.11;101963;1311;59926;-72
2022/10/18 10:28:29;;;;;;;8.50;5.20;;;;;;;18.49;100.00;99803.66;102142;1305;64694;-72
2022/10/18 10:31:17;;;;;;;9.30;5.90;;;;;;;18.54;100.00;99797.83;101811;1299;59873;-72
2022/10/18 10:33:46;;;;;;;8.00;5.20;;;;;;;18.62;100.00;99792.22;105439;1298;57864;-71
2022/10/18 10:36:19;;;;;;;8.10;5.40;;;;;;;18.71;100.00;99788.17;105486;1298;65426;-71
2022/10/18 10:39:01;;;;;;;7.20;5.20;;;;;;;18.80;100.00;99787.44;105433;1298;61255;-71
2022/10/18 10:41:28;;;;;;;7.20;5.30;;;;;;;18.90;100.00;99784.79;105427;1294;65265;-73
2022/10/18 10:43:55;;;;;;;8.20;5.00;;;;;;;18.97;100.00;99774.05;105464;1302;58311;-72
2022/10/18 10:46:22;;;;;;;6.80;4.90;;;;;;;19.06;100.00;99766.90;105486;1289;58119;-72
2022/10/18 10:48:52;;;;;;;5.50;5.10;;;;;;;19.15;100.00;99763.25;105532;1299;66280;-73
2022/10/18 10:51:32;;;;;;;7.20;6.20;;;;;;;19.22;100.00;99762.02;105511;1289;61011;-72
2022/10/18 10:54:10;;;;;;;6.40;5.40;;;;;;;19.32;100.00;99757.79;106005;1291;62334;-73
2022/10/18 10:56:55;;;;;;;10.00;5.40;;;;;;;19.38;100.00;99754.52;105980;1289;58455;-72
2022/10/18 10:59:25;;;;;;;5.60;4.90;;;;;;;19.42;100.00;99748.50;106057;1288;58060;-72
2022/10/18 11:02:19;;;;;;;;;;;;;;;19.48;100.00;99743.50;106010;1287;65333;-72
2022/10/18 11:04:54;;;;;;;9.00;5.20;;;;;;;19.51;100.00;99740.80;105574;1302;60058;-72
2022/10/18 11:07:23;;;;;;;9.30;5.70;;;;;;;19.55;100.00;99734.30;105574;1293;65592;-73
2022/10/18 11:10:02;;;;;;;5.40;4.50;;;;;;;19.63;100.00;99723.55;105559;1292;58317;-72
2022/10/18 11:12:36;;;;;;;7.40;5.60;;;;;;;19.65;100.00;99719.52;105561;1301;58486;-73
2022/10/18 11:15:28;;;;;;;5.60;4.90;;;;;;;19.70;100.00;99722.30;105390;1292;65262;-71
2022/10/18 11:18:04;;;;;;;7.20;5.70;;;;;;;19.70;100.00;99718.33;105407;1298;59956;-73
2022/10/18 11:20:42;;;;;;;6.00;5.30;;;;;;;19.70;100.00;99715.27;105574;1293;64169;-73
2022/10/18 11:23:13;;;;;;;6.50;5.10;;;;;;;19.73;100.00;99711.95;105575;1295;58210;-72
2022/10/18 11:25:55;;;;;;;7.80;5.80;;;;;;;19.77;100.00;99708.94;105546;1296;58155;-73
2022/10/18 11:28:27;;;;;;;10.20;8.30;;;;;;;19.82;100.00;99703.92;105565;1285;65143;-73
2022/10/18 11:31:09;;;;;;;11.10;7.90;;;;;;;19.86;100.00;99698.88;105599;1295;59837;-72
2022/10/18 11:33:38;;;;;;;15.40;10.20;;;;;;;19.89;100.00;99699.64;105583;1297;64783;-73
2022/10/18 11:36:23;;;;;;;13.20;8.80;;;;;;;19.90;100.00;99693.96;105396;1304;58510;-73
2022/10/18 11:39:13;;;;;;;9.20;6.20;;;;;;;19.95;100.00;99694.25;105538;1300;58181;-73
2022/10/18 11:41:54;;;;;;;8.80;6.20;;;;;;;19.98;100.00;99689.82;105728;1275;65193;-73
2022/10/18 11:44:42;;;;;;;7.00;5.30;;;;;;;20.00;100.00;99690.36;105842;1289;60852;-73
2022/10/18 11:47:41;;;;;;;9.40;5.40;;;;;;;20.03;100.00;99689.10;105931;1288;65037;-73
2022/10/18 11:50:26;;;;;;;7.60;6.80;;;;;;;20.07;100.00;99682.40;106029;1284;58124;-73
2022/10/18 11:53:08;;;;;;;6.90;4.90;;;;;;;20.10;100.00;99680.68;105705;1294;59060;-73
2022/10/18 11:56:00;;;;;;;7.90;5.40;;;;;;;20.11;100.00;99681.98;106040;1282;65214;-73
2022/10/18 11:58:36;;;;;;;9.70;5.90;;;;;;;20.11;100.00;99670.53;105994;1286;61055;-73
2022/10/18 12:01:10;;;;;;;6.50;5.20;;;;;;;20.12;100.00;99666.46;106022;1291;62726;-73
2022/10/18 12:03:49;;;;;;;7.40;5.70;;;;;;;20.13;100.00;99663.95;106002;1289;58053;-73
2022/10/18 12:06:21;;;;;;;8.10;5.70;;;;;;;20.18;100.00;99658.84;105979;1289;58049;-72
2022/10/18 12:08:52;;;;;;;7.20;5.40;;;;;;;20.21;100.00;99655.80;105729;1292;66412;-73
2022/10/18 12:11:28;;;;;;;7.40;5.60;;;;;;;20.24;100.00;99651.38;105787;1292;59777;-73
2022/10/18 12:13:59;;;;;;;7.00;4.60;;;;;;;20.28;100.00;99644.02;105763;1294;64825;-73
2022/10/18 12:16:36;;;;;;;6.60;5.20;;;;;;;20.29;100.00;99641.21;105749;1290;58245;-73
2022/10/18 12:19:07;;;;;;;6.90;5.20;;;;;;;20.29;100.00;99638.30;105776;1292;58278;-72
2022/10/18 12:21:34;;;;;;;7.80;5.40;;;;;;;20.30;100.00;99633.88;105765;1285;66201;-73
2022/10/18 12:24:12;;;;;;;6.00;5.20;;;;;;;20.31;100.00;99631.60;105597;1294;60783;-73
2022/10/18 12:26:39;;;;;;;7.10;5.30;;;;;;;20.30;100.00;99624.59;105715;1292;64121;-73
2022/10/18 12:29:41;;;;;;;6.80;4.90;;;;;;;20.33;100.00;99614.55;105749;1292;58192;-72
2022/10/18 12:32:12;;;;;;;6.70;5.00;;;;;;;20.34;100.00;99616.35;105246;1298;58252;-72
2022/10/18 12:34:45;;;;;;;6.70;5.30;;;;;;;20.33;100.00;99617.11;105287;1299;66292;-72
2022/10/18 12:37:40;;;;;;;5.70;5.20;;;;;;;20.34;100.00;99611.05;105266;1301;59875;-73
2022/10/18 12:40:31;;;;;;;7.70;5.60;;;;;;;20.34;100.00;99606.16;105296;1290;64227;-71
2022/10/18 12:42:58;;;;;;;6.40;5.00;;;;;;;20.39;100.00;99603.94;105399;1304;58093;-74
2022/10/18 12:45:34;;;;;;;9.60;4.90;;;;;;;20.40;100.00;99600.02;105397;1289;59439;-74
2022/10/18 12:48:05;;;;;;;5.50;4.80;;;;;;;20.37;100.00;99593.23;105380;1298;66227;-72
2022/10/18 12:50:38;;;;;;;5.90;4.70;;;;;;;20.35;100.00;99588.09;105405;1296;59978;-72
2022/10/18 12:53:18;;;;;;;6.90;4.90;;;;;;;20.33;100.00;99583.07;105138;1302;64182;-72
2022/10/18 12:55:50;;;;;;;7.60;4.90;;;;;;;20.31;100.00;99574.38;105343;1299;59290;-72
2022/10/18 12:58:39;;;;;;;6.40;5.10;;;;;;;20.31;100.00;99569.55;105197;1307;58158;-72
2022/10/18 13:01:06;;;;;;;6.80;5.10;;;;;;;20.31;100.00;99568.64;105394;1289;66222;-71
2022/10/18 13:03:39;;;;;;;8.00;4.90;;;;;;;20.31;100.00;99572.02;105428;1297;61135;-71
2022/10/18 13:06:06;;;;;;;8.10;5.30;;;;;;;20.30;100.00;99566.18;105210;1299;64056;-72
2022/10/18 13:08:40;;;;;;;6.50;5.40;;;;;;;20.31;100.00;99562.11;105460;1297;58206;-74
2022/10/18 13:11:07;;;;;;;7.90;4.80;;;;;;;20.32;100.00;99559.61;105946;1288;58046;-73
2022/10/18 13:14:01;;;;;;;6.10;5.00;;;;;;;20.34;100.00;99560.55;106023;1286;65034;-73
2022/10/18 13:16:33;;;;;;;8.00;5.00;;;;;;;20.36;100.00;99557.13;105672;1279;61183;-72
2022/10/18 13:19:19;;;;;;;7.80;4.70;;;;;;;20.37;100.00;99557.02;106015;1282;64965;-74
2022/10/18 13:22:10;;;;;;;7.00;4.70;;;;;;;20.33;100.00;99549.95;105971;1289;58389;-72
2022/10/18 13:25:14;;;;;;;8.70;5.10;;;;;;;20.31;100.00;99549.08;105681;1287;58356;-72
2022/10/18 13:27:53;;;;;;;9.10;5.40;;;;;;;20.29;100.00;99546.54;105977;1282;73351;-72
2022/10/18 13:30:20;;;;;;;6.30;5.60;;;;;;;20.32;100.00;99545.73;106027;1289;59966;-72
2022/10/18 13:33:00;;;;;;;8.30;5.50;;;;;;;20.34;100.00;99545.33;106013;1291;65254;-72
2022/10/18 13:35:58;;;;;;;8.10;5.70;;;;;;;20.35;100.00;99545.77;106015;1289;59057;-72
2022/10/18 13:38:57;;;;;;;7.10;5.10;;;;;;;20.35;100.00;99542.73;106058;1280;58011;-73
2022/10/18 13:41:42;;;;;;;7.10;5.00;;;;;;;20.34;100.00;99539.23;105983;1267;66380;-72
2022/10/18 13:44:38;;;;;;;6.00;5.20;;;;;;;20.34;100.00;99534.55;106056;1289;61017;-72
2022/10/18 13:47:05;;;;;;;8.10;4.90;;;;;;;20.34;100.00;99532.53;106016;1281;64032;-73
2022/10/18 13:49:49;;;;;;;5.50;5.00;;;;;;;20.33;100.00;99528.46;106041;1297;57961;-72
2022/10/18 13:52:44;;;;;;;5.40;4.90;;;;;;;20.33;100.00;99524.40;106029;1286;58158;-71
2022/10/18 13:55:32;;;;;;;9.00;5.50;;;;;;;20.34;100.00;99521.36;106050;1289;66289;-70
2022/10/18 13:58:23;;;;;;;6.20;5.20;;;;;;;20.34;100.00;99520.85;106039;1284;60984;-72
2022/10/18 14:01:21;;;;;;;8.80;5.50;;;;;;;20.32;100.00;99521.27;106000;1281;63764;-72
2022/10/18 14:04:17;;;;;;;8.20;5.20;;;;;;;20.29;100.00;99515.77;106024;1291;58436;-71
2022/10/18 14:06:45;;;;;;;6.20;5.60;;;;;;;20.24;100.00;99511.70;105436;1289;58189;-73
2022/10/18 14:09:24;;;;;;;8.20;6.20;;;;;;;20.20;100.00;99510.11;105378;1291;66298;-72
2022/10/18 14:12:00;;;;;;;6.70;5.40;;;;;;;20.16;100.00;99510.46;105404;1297;60810;-72
2022/10/18 14:14:36;;;;;;;8.70;6.10;;;;;;;20.11;100.00;99508.07;105424;1281;64164;-72
2022/10/18 14:17:18;;;;;;;9.30;5.90;;;;;;;20.06;100.00;99507.57;105405;1297;58251;-72
2022/10/18 14:20:21;;;;;;;8.10;6.90;;;;;;;19.98;100.00;99504.70;105423;1297;58104;-72
2022/10/18 14:23:12;;;;;;;9.60;6.70;;;;;;;19.90;100.00;99500.98;105359;1273;65329;-74
2022/10/18 14:25:39;;;;;;;9.60;6.50;;;;;;;19.83;100.00;99498.29;105381;1290;60236;-73
2022/10/18 14:28:17;;;;;;;8.40;6.30;;;;;;;19.78;100.00;99495.55;105418;1297;65229;-74
2022/10/18 14:30:55;;;;;;;8.00;6.30;;;;;;;19.72;100.00;99494.13;105364;1298;58359;-74
2022/10/18 14:33:32;;;;;;;9.50;6.40;;;;;;;19.66;100.00;99491.60;105406;1297;58209;-74
2022/10/18 14:36:08;;;;;;;9.60;6.00;;;;;;;19.63;100.00;99488.47;105446;1297;66290;-74
2022/10/18 14:38:43;;;;;;;8.70;5.90;;;;;;;19.61;100.00;99483.58;105343;1297;61064;-74
2022/10/18 14:41:15;;;;;;;9.40;5.90;;;;;;;19.61;100.00;99483.38;105381;1289;65032;-73
2022/10/18 14:43:43;;;;;;;8.20;6.60;;;;;;;19.63;100.00;99485.36;105604;1296;58297;-73
2022/10/18 14:46:16;;;;;;;7.90;6.50;;;;;;;19.64;100.00;99485.61;106041;1289;58054;-74
2022/10/18 14:48:58;;;;;;;7.80;6.30;;;;;;;19.64;100.00;99488.75;106034;1292;63809;-74
2022/10/18 14:51:27;;;;;;;10.30;6.20;;;;;;;19.62;100.00;99487.83;106071;1288;61081;-74
2022/10/18 14:53:54;;;;;;;9.70;6.60;;;;;;;19.60;100.00;99484.73;105653;1277;64059;-74
2022/10/18 14:56:35;;;;;;;8.30;6.10;;;;;;;19.57;100.00;99486.35;106045;1281;58082;-74
2022/10/18 14:59:04;;;;;;;11.70;6.50;;;;;;;19.50;100.00;99486.27;106067;1281;58141;-73
2022/10/18 15:01:31;;;;;;;7.10;5.80;;;;;;;19.44;100.00;99486.88;106039;1289;74339;-74
2022/10/18 15:04:09;;;;;;;8.00;6.10;;;;;;;19.38;100.00;99484.34;106051;1288;60927;-73
2022/10/18 15:06:41;;;;;;;7.70;6.40;;;;;;;19.32;100.00;99482.43;106048;1288;64026;-73
2022/10/18 15:09:10;;;;;;;8.40;6.40;;;;;;;19.24;100.00;99479.73;106066;1288;58155;-73
2022/10/18 15:11:40;;;;;;;9.80;6.30;;;;;;;19.16;100.00;99477.86;106067;1295;58282;-73
2022/10/18 15:14:12;;;;;;;;;;;;;;;19.05;100.00;99477.20;105912;1283;66261;-73
2022/10/18 15:16:39;;;;;;;6.70;6.00;;;;;;;18.94;100.00;99470.50;106066;1291;61013;-73
2022/10/18 15:19:26;;;;;;;10.00;6.80;;;;;;;18.84;100.00;99472.52;106075;1288;65015;-74
2022/10/18 15:21:53;;;;;;;6.80;5.70;;;;;;;18.76;100.00;99473.13;106064;1288;58149;-74
2022/10/18 15:24:26;;;;;;;7.80;6.10;;;;;;;18.66;100.00;99473.45;106066;1288;58177;-78
2022/10/18 15:26:58;;;;;;;7.80;5.80;;;;;;;18.54;100.00;99468.05;106061;1280;66196;-74
2022/10/18 15:29:26;;;;;;;8.20;5.30;;;;;;;18.44;100.00;99471.92;106063;1281;59959;-73
2022/10/18 15:31:53;;;;;;;9.90;6.10;;;;;;;18.33;100.00;99470.41;106060;1291;65137;-77
2022/10/18 15:34:23;;;;;;;8.40;5.80;;;;;;;18.22;100.00;99469.19;106061;1288;58168;-76
2022/10/18 15:36:52;;;;;;;5.80;5.30;;;;;;;18.12;100.00;99468.14;106080;1288;58295;-76
2022/10/18 15:39:20;;;;;;;6.40;5.70;;;;;;;18.01;100.00;99467.90;105925;1282;66246;-75
2022/10/18 15:41:53;;;;;;;7.70;6.20;;;;;;;17.88;100.00;99468.67;106071;1280;61042;-75
2022/10/18 15:44:28;;;;;;;8.70;6.40;;;;;;;17.75;100.00;99464.95;106067;1288;64047;-76
2022/10/18 15:47:11;;;;;;;9.60;7.00;;;;;;;17.64;100.00;99459.69;106072;1289;58048;-76
2022/10/18 15:49:43;;;;;;;9.40;6.40;;;;;;;17.52;100.00;99455.36;106077;1281;58069;-75
2022/10/18 15:52:33;;;;;;;9.70;6.80;;;;;;;17.41;100.00;99457.29;106053;1288;66382;-74
2022/10/18 15:55:00;;;;;;;10.10;7.30;;;;;;;17.28;100.00;99455.36;106071;1288;61057;-75
2022/10/18 15:57:30;;;;;;;8.10;6.30;;;;;;;17.19;100.00;99456.81;106049;1288;64563;-75
2022/10/18 16:00:06;;;;;;;8.60;7.10;;;;;;;17.12;100.00;99457.42;106044;1288;58150;-75
2022/10/18 16:02:32;;;;;;;10.20;7.20;;;;;;;17.04;100.00;99460.21;105818;1293;58144;-75
2022/10/18 16:05:00;;;;;;;11.40;8.10;;;;;;;16.96;100.00;99458.98;106070;1281;65149;-75
2022/10/18 16:07:27;;;;;;;12.60;8.80;;;;;;;16.87;100.00;99460.47;106070;1280;60039;-76
2022/10/18 16:09:53;;;;;;;69.70;35.40;;;;;;;16.80;100.00;99462.86;105859;1288;63792;-75
2022/10/18 16:12:20;;;;;;;103.30;51.40;;;;;;;16.75;100.00;99466.16;106025;1288;57939;-75
2022/10/18 16:14:46;;;;;;;102.80;57.20;;;;;;;16.68;100.00;99469.77;106072;1281;58123;-75
2022/10/18 16:17:15;;;;;;;86.20;48.60;;;;;;;16.62;100.00;99470.43;106088;1288;58070;-75
2022/10/18 16:19:43;;;;;;;68.10;38.40;;;;;;;16.54;100.00;99469.32;106117;1280;61140;-75
2022/10/18 16:22:11;;;;;;;57.40;39.40;;;;;;;16.45;100.00;99468.95;106155;1288;62397;-75
2022/10/18 16:24:39;;;;;;;24.60;19.60;;;;;;;16.38;100.00;99467.96;106070;1288;58047;-75
2022/10/18 16:27:06;;;;;;;22.80;13.50;;;;;;;16.31;100.00;99466.08;106087;1288;58286;-75
2022/10/18 16:29:32;;;;;;;48.00;27.20;;;;;;;16.23;100.00;99468.66;106088;1288;66170;-75
2022/10/18 16:31:59;;;;;;;31.00;22.60;;;;;;;16.16;100.00;99470.52;106082;1288;57977;-74
2022/10/18 16:34:26;;;;;;;16.80;14.00;;;;;;;16.10;100.00;99472.98;105787;1288;64790;-76
2022/10/18 16:36:53;;;;;;;19.70;14.30;;;;;;;16.05;100.00;99474.66;106101;1288;58538;-75
2022/10/18 16:39:21;;;;;;;25.90;20.60;;;;;;;16.01;100.00;99476.23;106074;1288;58151;-75
2022/10/18 16:41:50;;;;;;;15.80;13.00;;;;;;;15.97;100.00;99476.37;106071;1288;66306;-75
2022/10/18 16:44:18;;;;;;;13.00;10.20;;;;;;;15.94;100.00;99476.96;106059;1288;61012;-75
2022/10/18 16:46:45;;;;;;;12.80;9.70;;;;;;;15.94;100.00;99473.24;106049;1288;65025;-75
2022/10/18 16:49:19;;;;;;;12.90;8.90;;;;;;;15.92;100.00;99480.17;106047;1288;58092;-75
2022/10/18 16:51:45;;;;;;;13.30;9.70;;;;;;;15.91;100.00;99484.08;106057;1288;58333;-74
2022/10/18 16:54:12;;;;;;;13.50;10.40;;;;;;;15.90;100.00;99488.40;106070;1281;66378;-75
2022/10/18 16:56:39;;;;;;;18.30;11.80;;;;;;;15.91;100.00;99485.33;106055;1288;59935;-75
2022/10/18 16:59:05;;;;;;;16.00;11.40;;;;;;;15.93;100.00;99488.56;106046;1288;65120;-75
2022/10/18 17:01:32;;;;;;;18.00;11.50;;;;;;;15.95;100.00;99490.84;105896;1283;58138;-75
2022/10/18 17:03:59;;;;;;;14.50;10.70;;;;;;;15.99;100.00;99495.58;106073;1288;58059;-74
2022/10/18 17:06:31;;;;;;;13.50;9.80;;;;;;;16.03;100.00;99499.75;106081;1286;58803;-74
2022/10/18 17:08:58;;;;;;;14.00;10.30;;;;;;;16.08;100.00;99504.55;106076;1284;58484;-75
2022/10/18 17:11:27;;;;;;;14.00;10.30;;;;;;;16.13;100.00;99507.89;105841;1288;65293;-75
2022/10/18 17:13:54;;;;;;;13.00;9.70;;;;;;;16.17;100.00;99511.84;106051;1288;58173;-75
2022/10/18 17:16:27;;;;;;;16.50;12.10;;;;;;;16.21;100.00;99522.27;105818;1287;58109;-74
2022/10/18 17:18:56;;;;;;;14.70;13.10;;;;;;;16.27;100.00;99523.63;106048;1288;66624;-75
2022/10/18 17:21:25;;;;;;;22.10;14.10;;;;;;;16.29;100.00;99522.52;106046;1280;60268;-75
2022/10/18 17:23:51;;;;;;;17.60;13.70;;;;;;;16.30;100.00;99522.98;105819;1294;65025;-75
2022/10/18 17:26:22;;;;;;;20.10;13.80;;;;;;;16.30;100.00;99525.31;106059;1288;58115;-76
2022/10/18 17:28:54;;;;;;;17.80;13.80;;;;;;;16.30;100.00;99523.50;105766;1286;58144;-75
2022/10/18 17:31:21;;;;;;;21.00;14.20;;;;;;;16.29;100.00;99527.70;105871;1281;65174;-75
2022/10/18 17:33:48;;;;;;;19.50;12.40;;;;;;;16.30;100.00;99528.70;106053;1288;61009;-75
2022/10/18 17:36:14;;;;;;;16.50;12.20;;;;;;;16.31;100.00;99528.60;106055;1280;65014;-75
2022/10/18 17:38:41;;;;;;;19.90;13.70;;;;;;;16.33;100.00;99529.92;106057;1288;58023;-76